Time;durP1;ratioP1;P1;durP2;ratioP2;P2;SDS_P1;SDS_P2;PMS_P1;PMS_P2;Temp;Humidity;BMP_temperature;BMP_pressure;BME280_temperature;BME280_humidity;BME280_pressure;Samples;Min_cycle;Max_cycle;Signal;HPM_P1;HPM_P2
2022/05/25 00:00:37;;;;;;;8.18;4.18;;;20.00;99.90;;;;;;5054847;28;20413;-79
2022/05/25 00:03:06;;;;;;;4.90;3.03;;;20.00;99.90;;;;;;5054989;28;20131;-79
2022/05/25 00:05:34;;;;;;;11.18;3.95;;;20.10;99.90;;;;;;5038166;28;20037;-79
2022/05/25 00:08:02;;;;;;;13.18;3.80;;;20.10;99.90;;;;;;5037740;28;20045;-79
2022/05/25 00:10:29;;;;;;;7.60;3.38;;;20.00;99.90;;;;;;5021302;28;20080;-79
2022/05/25 00:12:57;;;;;;;7.40;3.97;;;20.00;99.90;;;;;;5037559;28;20072;-80
2022/05/25 00:15:25;;;;;;;10.13;4.78;;;20.00;99.90;;;;;;5037723;28;20532;-79
2022/05/25 00:17:53;;;;;;;6.00;3.92;;;20.00;99.90;;;;;;5037180;28;20048;-78
2022/05/25 00:20:21;;;;;;;11.13;3.83;;;20.00;99.90;;;;;;5037789;28;20045;-79
2022/05/25 00:22:52;;;;;;;10.38;4.93;;;19.90;99.90;;;;;;5054468;28;20048;-79
2022/05/25 00:25:27;;;;;;;5.90;3.20;;;19.90;99.90;;;;;;5037912;28;20052;-79
2022/05/25 00:27:56;;;;;;;8.20;4.15;;;19.90;99.90;;;;;;5037152;28;20125;-81
2022/05/25 00:30:25;;;;;;;12.20;4.90;;;19.90;99.90;;;;;;5021230;28;20048;-82
2022/05/25 00:32:57;;;;;;;10.88;3.50;;;19.90;99.90;;;;;;5054674;28;20407;-81
2022/05/25 00:35:26;;;;;;;10.50;4.60;;;19.80;99.90;;;;;;5037073;28;20672;-82
2022/05/25 00:37:54;;;;;;;11.05;4.03;;;19.90;99.90;;;;;;5053262;28;20052;-81
2022/05/25 00:40:26;;;;;;;6.20;3.92;;;19.80;99.90;;;;;;5070460;28;20041;-82
2022/05/25 00:42:54;;;;;;;7.18;3.55;;;19.90;99.90;;;;;;5037392;28;20048;-82
2022/05/25 00:45:22;;;;;;;8.45;4.00;;;19.90;99.90;;;;;;5037505;28;20045;-82
2022/05/25 00:47:51;;;;;;;13.55;4.25;;;19.90;99.90;;;;;;5053603;28;20033;-79
2022/05/25 00:50:22;;;;;;;10.80;4.30;;;19.90;99.90;;;;;;5037015;28;20147;-79
2022/05/25 00:52:51;;;;;;;7.57;4.38;;;19.90;99.90;;;;;;5020785;28;20391;-79
2022/05/25 00:55:28;;;;;;;15.70;4.28;;;19.80;99.90;;;;;;5053232;28;20054;-79
2022/05/25 00:57:59;;;;;;;7.03;4.10;;;19.80;99.90;;;;;;5020281;28;20087;-78
2022/05/25 01:00:30;;;;;;;7.43;3.58;;;19.80;99.90;;;;;;5020485;28;20056;-80
2022/05/25 01:03:11;;;;;;;7.60;3.42;;;19.80;99.90;;;;;;5053566;28;20060;-79
2022/05/25 01:06:35;;;;;;;8.45;3.92;;;19.70;99.90;;;;;;5071196;28;20040;-79
2022/05/25 01:09:12;;;;;;;13.48;4.32;;;19.70;99.90;;;;;;5028740;28;20531;-80
2022/05/25 01:12:06;;;;;;;5.50;3.08;;;19.70;99.90;;;;;;5028505;28;20056;-82
2022/05/25 01:14:52;;;;;;;8.55;3.45;;;19.70;99.90;;;;;;5033921;28;20056;-82
2022/05/25 01:17:32;;;;;;;8.68;3.30;;;19.70;99.90;;;;;;5069987;28;20695;-82
2022/05/25 01:20:32;;;;;;;13.55;3.83;;;19.70;99.90;;;;;;5052579;28;20055;-81
2022/05/25 01:23:27;;;;;;;7.97;3.20;;;19.70;99.90;;;;;;5053135;28;20051;-79
2022/05/25 01:26:18;;;;;;;33.40;5.68;;;19.70;99.90;;;;;;5070284;28;20441;-80
2022/05/25 01:29:23;;;;;;;7.82;3.38;;;19.70;99.90;;;;;;5039233;28;20046;-79
2022/05/25 01:32:02;;;;;;;11.25;3.92;;;19.80;99.90;;;;;;5055808;28;20078;-79
2022/05/25 01:34:52;;;;;;;9.95;4.25;;;19.70;99.90;;;;;;5035584;28;20094;-79
2022/05/25 01:37:23;;;;;;;5.85;3.88;;;19.80;99.90;;;;;;5052725;28;20041;-79
2022/05/25 01:39:59;;;;;;;12.23;3.38;;;19.80;99.90;;;;;;5036672;28;20079;-79
2022/05/25 01:42:39;;;;;;;9.68;3.33;;;19.70;99.90;;;;;;5052768;28;20417;-79
2022/05/25 01:45:09;;;;;;;9.65;3.50;;;19.70;99.90;;;;;;5036237;28;20392;-79
2022/05/25 01:47:41;;;;;;;12.38;4.05;;;19.80;99.90;;;;;;5019368;28;20058;-78
2022/05/25 01:50:21;;;;;;;8.13;3.63;;;19.80;99.90;;;;;;5051874;28;20064;-80
2022/05/25 01:52:59;;;;;;;8.95;3.40;;;19.90;99.90;;;;;;5052366;28;20051;-79
2022/05/25 01:55:41;;;;;;;9.70;3.20;;;19.80;99.90;;;;;;5035991;28;20143;-80
2022/05/25 01:58:11;;;;;;;7.40;2.95;;;19.80;99.90;;;;;;5019560;28;20101;-80
2022/05/25 02:00:42;;;;;;;8.68;3.70;;;19.80;99.90;;;;;;5052784;28;20091;-80
2022/05/25 02:06:21;;;;;;;8.30;3.88;;;19.90;99.90;;;;;;5070258;28;20049;-79
2022/05/25 02:09:06;;;;;;;13.93;3.30;;;19.90;99.90;;;;;;5070385;28;20044;-80
2022/05/25 02:11:38;;;;;;;10.60;3.33;;;19.90;99.90;;;;;;5036183;28;20059;-80
2022/05/25 02:14:31;;;;;;;12.45;4.72;;;19.90;99.90;;;;;;5052461;28;20147;-80
2022/05/25 02:17:20;;;;;;;9.10;3.58;;;19.80;99.90;;;;;;5070652;28;20051;-80
2022/05/25 02:20:06;;;;;;;13.20;3.33;;;19.80;99.90;;;;;;5052668;28;20121;-80
2022/05/25 02:22:42;;;;;;;7.63;3.33;;;19.80;99.90;;;;;;5052233;28;20513;-80
2022/05/25 02:25:33;;;;;;;13.80;4.13;;;19.80;99.90;;;;;;5019325;28;20482;-80
2022/05/25 02:28:08;;;;;;;9.77;3.70;;;19.80;99.90;;;;;;5018781;28;20098;-80
2022/05/25 02:30:40;;;;;;;6.57;2.55;;;19.80;99.90;;;;;;5035687;28;20174;-80
2022/05/25 02:33:15;;;;;;;8.90;3.03;;;19.80;99.90;;;;;;5035927;28;20084;-79
2022/05/25 02:35:46;;;;;;;7.40;3.50;;;19.80;99.90;;;;;;5035649;28;20118;-80
2022/05/25 02:38:15;;;;;;;7.35;3.60;;;19.80;99.90;;;;;;5035735;28;20059;-80
2022/05/25 02:40:42;;;;;;;9.57;3.28;;;19.80;99.90;;;;;;5052058;28;20044;-80
2022/05/25 02:43:10;;;;;;;4.80;2.78;;;19.80;99.90;;;;;;5051790;28;20048;-80
2022/05/25 02:45:39;;;;;;;9.23;3.05;;;19.80;99.90;;;;;;5035079;28;20076;-80
2022/05/25 02:48:07;;;;;;;5.78;2.78;;;19.80;99.90;;;;;;5035453;28;20076;-80
2022/05/25 02:50:35;;;;;;;8.27;2.78;;;19.80;99.90;;;;;;5070118;28;20479;-80
2022/05/25 02:53:04;;;;;;;10.25;3.88;;;19.80;99.90;;;;;;5051977;28;20072;-80
2022/05/25 02:55:31;;;;;;;9.45;3.85;;;19.80;99.90;;;;;;5039020;28;20147;-80
2022/05/25 02:57:59;;;;;;;5.88;2.90;;;19.80;99.90;;;;;;5038673;28;20409;-81
2022/05/25 03:00:26;;;;;;;8.80;2.88;;;19.80;99.90;;;;;;5040090;28;20075;-80
2022/05/25 03:02:56;;;;;;;8.13;3.83;;;19.70;99.90;;;;;;5048070;28;20041;-80
2022/05/25 03:05:24;;;;;;;9.50;3.40;;;19.70;99.90;;;;;;5039413;28;20551;-80
2022/05/25 03:07:51;;;;;;;8.68;3.90;;;19.70;99.90;;;;;;5039332;28;20055;-80
2022/05/25 03:10:19;;;;;;;13.13;3.22;;;19.70;99.90;;;;;;5062158;28;20066;-80
2022/05/25 03:12:47;;;;;;;10.93;3.90;;;19.70;99.90;;;;;;5059200;28;20405;-80
2022/05/25 03:15:15;;;;;;;7.05;3.83;;;19.70;99.90;;;;;;5058824;28;20143;-80
2022/05/25 03:17:42;;;;;;;4.90;2.80;;;19.60;99.90;;;;;;5059228;28;20087;-79
2022/05/25 03:20:11;;;;;;;13.95;4.25;;;19.60;99.90;;;;;;5075510;28;20078;-80
2022/05/25 03:22:44;;;;;;;7.72;3.20;;;19.70;99.90;;;;;;5075681;28;20044;-80
2022/05/25 03:25:12;;;;;;;14.70;3.88;;;19.60;99.90;;;;;;5075688;28;20051;-80
2022/05/25 03:27:40;;;;;;;7.00;2.95;;;19.60;99.90;;;;;;5042023;28;20046;-80
2022/05/25 03:30:09;;;;;;;8.07;3.17;;;19.60;99.90;;;;;;5059103;28;20083;-80
2022/05/25 03:32:36;;;;;;;6.30;3.35;;;19.60;99.90;;;;;;5075568;28;20051;-80
2022/05/25 03:35:05;;;;;;;7.47;3.55;;;19.60;99.90;;;;;;5042532;28;20390;-80
2022/05/25 03:37:33;;;;;;;6.90;3.17;;;19.60;99.90;;;;;;5075480;28;20051;-80
2022/05/25 03:40:00;;;;;;;9.65;5.07;;;19.60;99.90;;;;;;5074915;28;20040;-80
2022/05/25 03:42:28;;;;;;;12.88;3.60;;;19.60;99.90;;;;;;5041605;28;20074;-79
2022/05/25 03:44:55;;;;;;;8.60;3.00;;;19.60;99.90;;;;;;5093315;28;20047;-80
2022/05/25 03:47:23;;;;;;;5.35;3.53;;;19.60;99.90;;;;;;5058888;28;20052;-80
2022/05/25 03:49:52;;;;;;;9.90;3.88;;;19.60;99.90;;;;;;5075683;28;20078;-80
2022/05/25 03:52:21;;;;;;;11.77;4.55;;;19.60;99.90;;;;;;5075341;28;20036;-80
2022/05/25 03:54:49;;;;;;;5.68;2.85;;;19.60;99.90;;;;;;5041594;28;20127;-80
2022/05/25 03:57:16;;;;;;;6.78;2.92;;;19.60;99.90;;;;;;5041556;28;20052;-80
2022/05/25 03:59:45;;;;;;;8.38;4.30;;;19.60;99.90;;;;;;5058183;28;20055;-79
2022/05/25 04:02:14;;;;;;;6.45;3.15;;;19.70;99.90;;;;;;5074605;28;20051;-80
2022/05/25 04:04:41;;;;;;;11.48;3.83;;;19.70;99.90;;;;;;5036875;28;20051;-79
2022/05/25 04:07:09;;;;;;;7.95;2.78;;;19.70;99.90;;;;;;5038528;28;20076;-79
2022/05/25 04:09:37;;;;;;;10.63;3.90;;;19.70;99.90;;;;;;5072381;28;20044;-79
2022/05/25 04:12:05;;;;;;;9.65;3.85;;;19.80;99.90;;;;;;5038020;28;20403;-79
2022/05/25 04:14:32;;;;;;;9.43;3.60;;;19.80;99.90;;;;;;5038011;28;20083;-80
2022/05/25 04:17:00;;;;;;;8.00;3.25;;;19.80;99.90;;;;;;5038175;28;20048;-78
2022/05/25 04:19:27;;;;;;;9.40;2.85;;;19.90;99.90;;;;;;5038005;28;20063;-78
2022/05/25 04:21:55;;;;;;;4.63;2.88;;;19.90;99.90;;;;;;5021273;28;20106;-78
2022/05/25 04:24:23;;;;;;;5.07;2.92;;;20.00;99.90;;;;;;5037651;28;20037;-79
2022/05/25 04:26:50;;;;;;;8.40;3.03;;;20.10;99.90;;;;;;5037660;28;20786;-78
2022/05/25 04:29:18;;;;;;;7.28;3.35;;;20.10;99.90;;;;;;5072259;28;20049;-79
2022/05/25 04:31:45;;;;;;;5.05;2.45;;;20.20;99.90;;;;;;5053697;28;20053;-79
2022/05/25 04:34:13;;;;;;;9.95;3.63;;;20.30;99.90;;;;;;5037291;28;20212;-79
2022/05/25 04:36:41;;;;;;;13.80;3.60;;;20.40;99.90;;;;;;5020822;28;20493;-79
2022/05/25 04:39:09;;;;;;;8.02;3.67;;;20.50;99.90;;;;;;5037970;28;20152;-79
2022/05/25 04:41:37;;;;;;;7.10;3.45;;;20.50;99.90;;;;;;5071817;28;20135;-79
2022/05/25 04:44:04;;;;;;;8.60;3.10;;;20.60;99.90;;;;;;5071826;28;20494;-80
2022/05/25 04:46:32;;;;;;;8.07;2.90;;;20.70;99.90;;;;;;5053865;28;20056;-79
2022/05/25 04:49:00;;;;;;;9.73;3.95;;;20.80;99.90;;;;;;5037480;28;20036;-79
2022/05/25 04:51:29;;;;;;;4.57;2.42;;;20.80;99.90;;;;;;5037271;28;20494;-78
2022/05/25 04:53:56;;;;;;;8.25;3.20;;;20.90;99.90;;;;;;5037166;28;20040;-79
2022/05/25 04:59:10;;;;;;;13.05;3.45;;;21.10;99.90;;;;;;5054862;28;20072;-79
2022/05/25 05:01:38;;;;;;;8.75;3.17;;;21.20;99.90;;;;;;5037054;28;20078;-79
2022/05/25 05:04:05;;;;;;;7.95;3.67;;;21.30;99.90;;;;;;5070004;28;20462;-79
2022/05/25 05:06:33;;;;;;;6.30;3.20;;;21.30;99.90;;;;;;5053954;28;20049;-79
2022/05/25 05:09:06;;;;;;;8.27;3.70;;;21.40;99.90;;;;;;5036951;28;20561;-79
2022/05/25 05:11:36;;;;;;;6.68;2.97;;;21.50;99.90;;;;;;5053818;28;20094;-79
2022/05/25 05:14:04;;;;;;;8.63;2.97;;;21.50;99.90;;;;;;5070896;28;20044;-79
2022/05/25 05:16:32;;;;;;;8.27;2.78;;;21.60;99.90;;;;;;5052477;28;20080;-79
2022/05/25 05:19:11;;;;;;;5.63;2.88;;;21.70;99.90;;;;;;5036517;28;20055;-80
2022/05/25 05:21:58;;;;;;;7.95;3.05;;;21.90;99.90;;;;;;5055871;28;20119;-80
2022/05/25 05:24:27;;;;;;;8.98;2.83;;;21.90;99.90;;;;;;5069746;28;20044;-80
2022/05/25 05:26:56;;;;;;;5.53;2.55;;;22.10;99.90;;;;;;5052806;28;20048;-80
2022/05/25 05:29:26;;;;;;;8.75;2.22;;;22.10;99.90;;;;;;5070065;28;20070;-80
2022/05/25 05:31:53;;;;;;;15.38;3.63;;;22.20;99.90;;;;;;5052951;28;20428;-80
2022/05/25 05:34:21;;;;;;;6.13;3.28;;;22.30;99.90;;;;;;5069171;28;20127;-80
2022/05/25 05:37:02;;;;;;;8.32;2.58;;;22.40;99.90;;;;;;5036644;28;20061;-79
2022/05/25 05:39:34;;;;;;;4.68;2.35;;;22.50;99.90;;;;;;5069458;28;20059;-80
2022/05/25 05:42:11;;;;;;;7.03;2.40;;;22.40;99.90;;;;;;5052939;28;20052;-78
2022/05/25 05:45:01;;;;;;;8.95;2.92;;;22.40;99.90;;;;;;5036360;28;20048;-80
2022/05/25 05:47:35;;;;;;;8.90;2.95;;;22.50;99.90;;;;;;5052972;28;20056;-80
2022/05/25 05:50:06;;;;;;;6.35;2.63;;;22.60;99.90;;;;;;5019861;28;20048;-79
2022/05/25 05:52:35;;;;;;;6.95;3.08;;;22.80;99.90;;;;;;5069395;28;20041;-79
2022/05/25 05:55:05;;;;;;;9.15;3.58;;;22.90;99.90;;;;;;5070316;28;20119;-79
2022/05/25 05:57:36;;;;;;;7.93;3.50;;;23.00;99.90;;;;;;5073038;28;20059;-79
2022/05/25 06:00:06;;;;;;;8.43;3.45;;;23.10;99.90;;;;;;5055938;28;20105;-80
2022/05/25 06:02:39;;;;;;;5.67;2.80;;;23.20;99.90;;;;;;5056685;28;20138;-79
2022/05/25 06:05:07;;;;;;;8.07;2.60;;;23.30;99.90;;;;;;5039371;28;20056;-80
2022/05/25 06:07:35;;;;;;;9.77;2.83;;;23.40;99.90;;;;;;5072682;28;20052;-80
2022/05/25 06:10:05;;;;;;;5.32;2.53;;;23.40;99.90;;;;;;5072540;28;20664;-80
2022/05/25 06:12:33;;;;;;;6.03;2.60;;;23.60;99.90;;;;;;5072888;28;20048;-80
2022/05/25 06:19:25;;;;;;;9.10;3.83;;;23.70;99.90;;;;;;5056159;28;20135;-80
2022/05/25 06:20:38;;;;;;;17.67;3.47;;;23.80;99.50;;;;;;5090337;28;20044;-80
2022/05/25 06:23:05;;;;;;;7.40;3.60;;;23.80;98.90;;;;;;5055349;28;20048;-80
2022/05/25 06:25:33;;;;;;;10.80;2.63;;;23.90;98.90;;;;;;5055943;28;20056;-80
2022/05/25 06:28:00;;;;;;;3.42;2.15;;;24.10;98.60;;;;;;5057105;28;21908;-80
2022/05/25 06:30:28;;;;;;;8.90;2.55;;;24.20;98.00;;;;;;5078033;28;20135;-80
2022/05/25 06:32:56;;;;;;;5.07;2.53;;;24.30;97.40;;;;;;5045838;28;20806;-79
2022/05/25 06:35:23;;;;;;;5.85;2.17;;;24.30;97.60;;;;;;5097161;28;20135;-80
2022/05/25 06:37:51;;;;;;;9.63;2.33;;;24.40;95.90;;;;;;5062564;28;20040;-81
2022/05/25 06:40:18;;;;;;;6.25;2.15;;;24.60;96.40;;;;;;5060865;28;20142;-80
2022/05/25 06:42:46;;;;;;;5.85;2.47;;;24.60;96.30;;;;;;5059108;28;20076;-81
2022/05/25 06:45:13;;;;;;;5.20;2.20;;;24.70;95.50;;;;;;5042664;28;20044;-81
2022/05/25 06:47:41;;;;;;;7.40;2.38;;;24.70;95.60;;;;;;5058945;28;20118;-80
2022/05/25 06:50:09;;;;;;;6.90;2.47;;;24.70;95.10;;;;;;5041942;28;20053;-80
2022/05/25 06:52:37;;;;;;;8.95;2.47;;;24.80;94.80;;;;;;5042547;28;20862;-80
2022/05/25 06:55:07;;;;;;;5.25;2.20;;;25.00;94.50;;;;;;5041458;28;20536;-80
2022/05/25 06:57:34;;;;;;;5.22;2.28;;;25.10;94.20;;;;;;5058516;28;20054;-81
2022/05/25 07:00:04;;;;;;;6.30;2.10;;;25.10;93.10;;;;;;5057244;28;20048;-80
2022/05/25 07:02:31;;;;;;;7.88;3.03;;;25.10;93.10;;;;;;5025859;28;20469;-81
2022/05/25 07:04:59;;;;;;;8.65;1.85;;;25.20;93.10;;;;;;5042164;28;20066;-80
2022/05/25 07:07:27;;;;;;;4.28;1.92;;;25.40;92.60;;;;;;5042394;28;20491;-80
2022/05/25 07:09:54;;;;;;;6.10;2.90;;;25.50;92.10;;;;;;5076116;28;20041;-81
2022/05/25 07:12:22;;;;;;;6.38;2.40;;;25.60;92.20;;;;;;5042014;28;20052;-80
2022/05/25 07:14:49;;;;;;;6.53;2.20;;;25.70;90.90;;;;;;5042532;28;20045;-80
2022/05/25 07:17:17;;;;;;;6.13;2.58;;;25.80;91.00;;;;;;5025082;28;20047;-81
2022/05/25 07:19:44;;;;;;;7.65;2.75;;;26.00;91.40;;;;;;5058065;28;20044;-81
2022/05/25 07:22:12;;;;;;;7.20;2.42;;;26.10;91.60;;;;;;5041896;28;20041;-80
2022/05/25 07:24:43;;;;;;;7.43;2.47;;;26.10;91.20;;;;;;5042259;28;20084;-81
2022/05/25 07:27:11;;;;;;;5.00;2.28;;;26.10;91.40;;;;;;5042107;28;20418;-81
2022/05/25 07:29:39;;;;;;;7.15;1.70;;;26.30;91.60;;;;;;5076395;28;20060;-81
2022/05/25 07:32:09;;;;;;;3.90;1.75;;;26.40;89.50;;;;;;5014220;28;20060;-81
2022/05/25 07:34:43;;;;;;;8.45;1.80;;;26.60;89.50;;;;;;5035140;28;20076;-81
2022/05/25 07:37:16;;;;;;;9.13;2.80;;;26.70;88.90;;;;;;5018340;28;20057;-81
2022/05/25 07:39:55;;;;;;;5.97;1.73;;;26.90;86.00;;;;;;5033394;28;20737;-82
2022/05/25 07:42:25;;;;;;;2.90;1.58;;;26.90;84.80;;;;;;5032187;28;20049;-80
2022/05/25 07:44:56;;;;;;;5.60;1.70;;;26.90;85.60;;;;;;5031774;28;20041;-80
2022/05/25 07:47:27;;;;;;;6.57;2.17;;;27.00;84.90;;;;;;5032084;28;20084;-81
2022/05/25 07:49:55;;;;;;;6.32;1.80;;;27.00;85.30;;;;;;5015769;28;20053;-81
2022/05/25 07:52:25;;;;;;;5.65;1.80;;;27.30;84.40;;;;;;5032152;28;20037;-81
2022/05/25 07:54:55;;;;;;;5.43;2.13;;;27.20;84.10;;;;;;5032031;28;20218;-81
2022/05/25 07:57:22;;;;;;;5.05;2.03;;;27.10;83.70;;;;;;4999642;28;20050;-82
2022/05/25 07:59:50;;;;;;;4.90;1.80;;;27.30;83.70;;;;;;4998936;28;20106;-81
2022/05/25 08:07:56;;;;;;;8.75;2.10;;;27.40;82.90;;;;;;5031337;28;20050;-80
2022/05/25 08:10:25;;;;;;;6.85;2.00;;;27.60;82.30;;;;;;5030970;28;20069;-80
2022/05/25 08:12:57;;;;;;;6.38;2.33;;;27.80;82.00;;;;;;5014974;28;20052;-81
2022/05/25 08:15:26;;;;;;;8.43;2.42;;;28.10;80.30;;;;;;5015217;28;20060;-80
2022/05/25 08:17:54;;;;;;;5.55;2.22;;;28.10;80.60;;;;;;5031592;28;20408;-80
2022/05/25 08:20:22;;;;;;;5.70;2.53;;;28.10;80.00;;;;;;5031440;28;20593;-81
2022/05/25 08:22:49;;;;;;;5.93;2.17;;;28.10;79.30;;;;;;5032538;28;20042;-81
2022/05/25 08:25:19;;;;;;;7.85;2.30;;;28.10;78.00;;;;;;5031340;28;20084;-82
2022/05/25 08:27:46;;;;;;;6.05;2.22;;;28.10;78.30;;;;;;5014412;28;20103;-81
2022/05/25 08:30:19;;;;;;;6.68;1.90;;;28.30;78.50;;;;;;5030809;28;20148;-82
2022/05/25 08:32:48;;;;;;;6.35;1.98;;;28.50;77.50;;;;;;5017822;28;20037;-81
2022/05/25 08:35:16;;;;;;;4.50;2.20;;;28.40;77.30;;;;;;5052402;28;20049;-81
2022/05/25 08:37:44;;;;;;;6.00;2.75;;;28.40;77.50;;;;;;5033774;28;20056;-82
2022/05/25 08:40:18;;;;;;;5.18;2.28;;;28.40;77.30;;;;;;5051182;28;20037;-82
2022/05/25 08:42:58;;;;;;;5.22;2.00;;;28.40;77.00;;;;;;5034474;28;20055;-82
2022/05/25 08:45:39;;;;;;;4.38;2.13;;;28.40;77.40;;;;;;5050442;28;20041;-82
2022/05/25 08:48:10;;;;;;;4.03;2.00;;;28.40;77.00;;;;;;5050359;28;20569;-82
2022/05/25 08:50:40;;;;;;;7.82;2.15;;;28.50;76.40;;;;;;5034209;28;20056;-82
2022/05/25 08:53:11;;;;;;;4.70;1.65;;;28.70;76.90;;;;;;5016967;28;20067;-83
2022/05/25 08:55:56;;;;;;;3.40;1.80;;;28.70;75.10;;;;;;5033718;28;20048;-81
2022/05/25 08:58:29;;;;;;;9.35;1.88;;;28.80;75.40;;;;;;5034195;28;20613;-83
2022/05/25 09:01:01;;;;;;;2.85;1.50;;;28.80;74.70;;;;;;5033258;28;20099;-81
2022/05/25 09:03:44;;;;;;;5.18;1.98;;;28.80;74.40;;;;;;5050013;28;20095;-82
2022/05/25 09:06:39;;;;;;;5.93;1.85;;;28.80;75.50;;;;;;5033792;28;20045;-83
2022/05/25 09:09:34;;;;;;;5.28;2.13;;;28.90;74.60;;;;;;5033737;28;20040;-79
2022/05/25 09:12:28;;;;;;;7.05;1.98;;;28.80;73.60;;;;;;5041281;28;20143;-79
2022/05/25 09:15:04;;;;;;;4.80;1.80;;;28.90;73.70;;;;;;5024090;28;20445;-80
2022/05/25 09:17:36;;;;;;;7.55;1.92;;;28.90;73.50;;;;;;5017575;28;20376;-80
2022/05/25 09:20:05;;;;;;;7.28;2.25;;;29.10;74.30;;;;;;5013325;28;20549;-80
2022/05/25 09:22:33;;;;;;;4.80;2.30;;;29.20;73.90;;;;;;5029893;28;20049;-80
2022/05/25 09:25:03;;;;;;;6.65;2.20;;;29.20;72.50;;;;;;4997399;28;20503;-80
2022/05/25 09:27:44;;;;;;;5.47;2.13;;;29.20;71.70;;;;;;5031341;28;20075;-80
2022/05/25 09:30:13;;;;;;;8.15;2.35;;;29.20;75.30;;;;;;5029721;28;20045;-79
2022/05/25 09:32:48;;;;;;;8.48;2.30;;;29.30;74.10;;;;;;4996954;28;20061;-80
2022/05/25 09:35:25;;;;;;;4.75;2.00;;;29.30;74.80;;;;;;4997263;28;20403;-80
2022/05/25 09:38:05;;;;;;;6.03;1.90;;;29.30;73.40;;;;;;5013782;28;20076;-82
2022/05/25 09:40:35;;;;;;;5.43;2.70;;;29.40;72.90;;;;;;5030244;28;20054;-79
2022/05/25 09:43:05;;;;;;;6.13;2.05;;;29.60;74.00;;;;;;5031176;28;20492;-79
2022/05/25 09:45:42;;;;;;;2.75;1.63;;;29.50;75.40;;;;;;4997158;28;20048;-79
2022/05/25 09:48:19;;;;;;;5.35;2.20;;;29.40;73.80;;;;;;5029913;28;20045;-80
2022/05/25 09:50:52;;;;;;;6.80;2.20;;;29.40;73.50;;;;;;5029097;28;20045;-80
2022/05/25 09:53:24;;;;;;;5.47;1.98;;;29.40;69.60;;;;;;5013959;28;20483;-80
2022/05/25 09:55:59;;;;;;;3.83;2.13;;;29.40;69.40;;;;;;5029784;28;20095;-81
2022/05/25 09:58:38;;;;;;;8.60;2.10;;;29.40;70.00;;;;;;5013297;28;20095;-80
2022/05/25 10:01:18;;;;;;;4.75;2.30;;;29.50;69.60;;;;;;4996205;28;20055;-81
2022/05/25 10:03:46;;;;;;;4.50;1.90;;;29.50;69.20;;;;;;5012150;28;20037;-81
2022/05/25 10:06:29;;;;;;;8.77;2.40;;;29.70;69.60;;;;;;5029964;28;20050;-81
2022/05/25 10:09:20;;;;;;;5.63;2.38;;;29.80;67.50;;;;;;5029227;28;20049;-80
2022/05/25 10:11:51;;;;;;;8.25;3.38;;;30.00;68.00;;;;;;5001822;28;20056;-80
2022/05/25 10:14:26;;;;;;;5.05;2.58;;;30.10;67.50;;;;;;5013223;28;20042;-80
2022/05/25 10:16:55;;;;;;;;;;;29.90;67.50;;;;;;4997325;28;20052;-80
2022/05/25 10:19:24;;;;;;;5.00;2.60;;;30.00;66.60;;;;;;5027210;28;19925;-81
2022/05/25 10:21:51;;;;;;;8.25;3.08;;;30.10;65.30;;;;;;5045567;28;20037;-81
2022/05/25 10:24:43;;;;;;;8.77;2.88;;;30.30;65.50;;;;;;5029025;28;20103;-81
2022/05/25 10:27:29;;;;;;;5.72;3.25;;;30.30;64.60;;;;;;5029651;28;20053;-81
2022/05/25 10:38:39;;;;;;;7.07;2.92;;;30.00;62.20;;;;;;5030490;28;20049;-80
2022/05/25 10:44:22;;;;;;;4.30;2.75;;;30.00;62.40;;;;;;5029893;28;20050;-80
2022/05/25 10:46:55;;;;;;;5.28;2.72;;;30.00;61.60;;;;;;4996810;28;20046;-80
2022/05/25 10:49:43;;;;;;;6.03;2.45;;;29.90;61.10;;;;;;5028920;28;20056;-81
2022/05/25 10:52:28;;;;;;;6.13;2.28;;;30.00;60.20;;;;;;5045206;28;20033;-80
2022/05/25 10:54:56;;;;;;;4.72;2.13;;;29.90;59.90;;;;;;5029287;28;20059;-81
2022/05/25 10:57:24;;;;;;;5.45;3.10;;;29.80;59.90;;;;;;5028712;28;20131;-80
2022/05/25 11:00:07;;;;;;;9.68;2.72;;;29.90;59.90;;;;;;5028768;28;20092;-80
2022/05/25 11:02:38;;;;;;;5.40;2.65;;;29.80;59.50;;;;;;5029242;28;20140;-80
2022/05/25 11:05:23;;;;;;;5.93;2.78;;;29.80;59.10;;;;;;5029203;28;20049;-80
2022/05/25 11:08:04;;;;;;;3.15;2.00;;;29.70;59.10;;;;;;5029047;28;20101;-80
2022/05/25 11:10:47;;;;;;;7.00;2.08;;;29.70;58.60;;;;;;5028865;28;20144;-81
2022/05/25 11:13:43;;;;;;;4.70;1.90;;;29.80;58.50;;;;;;5029089;28;20403;-81
2022/05/25 11:16:37;;;;;;;10.10;4.55;;;29.70;58.40;;;;;;5014364;28;20049;-83
2022/05/25 11:19:39;;;;;;;6.45;2.53;;;29.80;58.20;;;;;;5015718;28;20098;-82
2022/05/25 11:22:28;;;;;;;4.65;2.00;;;29.80;57.70;;;;;;5020572;28;20475;-82
2022/05/25 11:25:12;;;;;;;6.15;3.42;;;29.90;57.60;;;;;;5017010;28;20091;-82
2022/05/25 11:27:57;;;;;;;8.30;3.85;;;29.90;57.00;;;;;;5016144;28;20049;-81
2022/05/25 11:30:56;;;;;;;11.50;3.33;;;29.90;57.00;;;;;;5033336;28;20482;-80
2022/05/25 11:33:24;;;;;;;5.28;3.30;;;29.80;56.60;;;;;;5051078;28;20049;-81
2022/05/25 11:36:15;;;;;;;4.35;2.60;;;29.80;56.60;;;;;;5035018;28;20557;-80
2022/05/25 11:39:02;;;;;;;7.47;2.38;;;29.80;56.80;;;;;;5052122;28;20045;-81
2022/05/25 11:41:55;;;;;;;5.05;2.50;;;29.80;56.80;;;;;;5052388;28;20051;-81
2022/05/25 11:44:37;;;;;;;6.82;3.05;;;29.70;56.70;;;;;;5034607;28;20144;-82
2022/05/25 11:47:37;;;;;;;7.00;2.70;;;29.80;56.50;;;;;;5051503;28;20048;-82
2022/05/25 11:50:16;;;;;;;9.93;3.10;;;29.70;56.20;;;;;;5051111;28;20041;-82
2022/05/25 11:52:47;;;;;;;7.18;2.00;;;29.70;56.20;;;;;;5051419;28;20053;-81
2022/05/25 11:55:29;;;;;;;5.93;2.10;;;29.60;56.00;;;;;;5051134;28;20049;-81
2022/05/25 11:58:22;;;;;;;4.00;2.20;;;29.60;55.80;;;;;;5067587;28;20037;-82
2022/05/25 12:01:03;;;;;;;16.50;2.80;;;29.50;55.70;;;;;;5034589;28;20048;-81
2022/05/25 12:03:49;;;;;;;5.05;2.25;;;29.60;55.90;;;;;;5068306;28;20040;-81
2022/05/25 12:06:46;;;;;;;4.32;2.63;;;29.80;56.10;;;;;;5051556;28;20114;-81
2022/05/25 12:09:32;;;;;;;4.07;2.20;;;29.80;55.70;;;;;;5041621;28;20147;-81
2022/05/25 12:12:24;;;;;;;6.28;2.10;;;29.60;56.00;;;;;;5034261;28;20049;-81
2022/05/25 12:15:09;;;;;;;4.72;1.88;;;29.60;56.30;;;;;;5034147;28;20127;-80
2022/05/25 12:18:24;;;;;;;5.67;1.60;;;29.40;56.00;;;;;;5017808;28;20517;-81
2022/05/25 12:21:15;;;;;;;8.00;1.75;;;29.50;56.20;;;;;;5017904;28;20049;-82
2022/05/25 12:23:51;;;;;;;5.05;1.77;;;29.60;56.70;;;;;;5017497;28;20525;-82
2022/05/25 12:26:30;;;;;;;6.55;2.70;;;29.60;56.40;;;;;;5034084;28;20041;-82
2022/05/25 12:29:50;;;;;;;4.30;1.95;;;29.70;56.20;;;;;;5050789;28;20778;-81
2022/05/25 12:32:20;;;;;;;5.20;2.25;;;29.80;56.20;;;;;;5008471;28;20573;-81
2022/05/25 12:34:51;;;;;;;5.13;1.73;;;29.80;56.20;;;;;;5030610;28;20057;-82
2022/05/25 12:37:33;;;;;;;7.13;2.25;;;29.60;55.40;;;;;;5014044;28;20060;-82
2022/05/25 12:40:05;;;;;;;4.35;2.10;;;29.50;55.90;;;;;;5030162;28;20045;-84
2022/05/25 12:42:35;;;;;;;6.75;2.38;;;29.50;56.00;;;;;;5030936;28;20049;-82
2022/05/25 12:50:43;;;;;;;5.18;2.50;;;29.70;56.30;;;;;;5029786;28;20049;-82
2022/05/25 12:53:32;;;;;;;3.40;1.40;;;29.80;55.40;;;;;;5030113;28;20153;-82
2022/05/25 12:56:01;;;;;;;4.78;1.88;;;29.70;55.20;;;;;;5031493;28;20057;-81
2022/05/25 12:58:33;;;;;;;3.72;1.27;;;29.70;54.60;;;;;;5046565;28;20037;-82
2022/05/25 13:01:26;;;;;;;4.00;1.48;;;29.70;55.30;;;;;;5030361;28;20187;-81
2022/05/25 13:03:57;;;;;;;3.60;1.73;;;29.60;54.50;;;;;;5030433;28;20057;-82
2022/05/25 13:06:35;;;;;;;10.80;1.77;;;29.60;54.80;;;;;;5013299;28;20049;-82
2022/05/25 13:09:08;;;;;;;6.05;1.85;;;29.40;54.80;;;;;;4996849;28;20498;-82
2022/05/25 13:11:42;;;;;;;8.07;2.42;;;29.30;55.30;;;;;;5012751;28;20052;-82
2022/05/25 13:14:20;;;;;;;4.03;1.50;;;29.30;55.50;;;;;;5029130;28;20491;-82
2022/05/25 13:16:51;;;;;;;7.78;1.73;;;29.40;55.70;;;;;;4996738;28;20046;-81
2022/05/25 13:19:37;;;;;;;4.95;2.58;;;29.40;56.40;;;;;;4996999;28;20069;-83
2022/05/25 13:22:17;;;;;;;;;;;29.50;56.10;;;;;;5029884;28;20050;-82
2022/05/25 13:25:03;;;;;;;3.90;2.20;;;29.30;55.90;;;;;;5046086;28;19920;-82
2022/05/25 13:27:53;;;;;;;2.80;1.40;;;29.40;56.40;;;;;;5028431;28;20100;-82
2022/05/25 13:30:34;;;;;;;3.13;1.38;;;29.40;57.00;;;;;;5030507;28;20046;-81
2022/05/25 13:33:20;;;;;;;3.85;1.98;;;29.30;56.60;;;;;;5016201;28;20526;-81
2022/05/25 13:36:03;;;;;;;4.50;1.10;;;29.20;56.20;;;;;;5013563;28;20041;-80
2022/05/25 13:38:37;;;;;;;4.53;1.60;;;29.30;56.50;;;;;;5030321;28;20079;-81
2022/05/25 13:41:25;;;;;;;4.53;1.70;;;29.30;56.40;;;;;;5019500;28;20794;-81
2022/05/25 13:44:02;;;;;;;4.35;2.05;;;29.20;55.90;;;;;;5022592;28;20116;-82
2022/05/25 13:46:42;;;;;;;4.25;1.45;;;29.10;55.90;;;;;;5021529;28;20056;-81
2022/05/25 13:49:31;;;;;;;4.93;1.50;;;29.10;56.40;;;;;;5018740;28;20049;-80
2022/05/25 13:52:13;;;;;;;3.88;1.27;;;29.10;56.40;;;;;;5034337;28;20436;-79
2022/05/25 13:54:43;;;;;;;6.13;1.83;;;29.00;55.70;;;;;;5030773;28;20045;-81